Terminal Aerodrome Forecast
Issued by NWS Jackson, KY

Home | Current Version | Previous Version | Text Only | Print | Product List | Glossary On
Versions: 1 2 3 4 5 6 7 8 9 10 11 12 13 14 15 16 17 18 19 20 21
098
FTUS43 KJKL 132345
TAFJKL
TAF
KJKL 132345Z 1400/1424 04005KT 1 1/2SM -RA BR OVC003
     FM140400 05004KT 4SM BR VCSH OVC003
     FM141400 00000KT 5SM BR VCSH OVC005
     FM141900 VRB03KT 4SM -SHRA OVC003=

USA.gov is the U.S. government's official web portal to all federal, state and local government web resources and services.